Time;durP1;ratioP1;P1;durP2;ratioP2;P2;SDS_P1;SDS_P2;PMS_P1;PMS_P2;Temp;Humidity;BMP_temperature;BMP_pressure;BME280_temperature;BME280_humidity;BME280_pressure;Samples;Min_cycle;Max_cycle;Signal;HPM_P1;HPM_P2
2023/12/22 00:01:25;;;;;;;12.18;1.90;;;6.80;99.90;;;;;;5000950;28;20057;-37
2023/12/22 00:03:51;;;;;;;14.73;1.60;;;6.80;99.90;;;;;;4996751;28;20350;-34
2023/12/22 00:06:16;;;;;;;13.43;2.45;;;6.80;99.90;;;;;;5001931;28;20065;-36
2023/12/22 00:08:42;;;;;;;11.60;2.83;;;6.80;99.90;;;;;;4995036;28;20053;-35
2023/12/22 00:11:08;;;;;;;15.25;2.53;;;6.80;99.90;;;;;;4997259;28;20494;-36
2023/12/22 00:13:33;;;;;;;9.77;1.70;;;6.80;99.90;;;;;;4987054;28;20488;-36
2023/12/22 00:16:00;;;;;;;12.93;1.60;;;6.70;99.90;;;;;;5004114;28;20571;-36
2023/12/22 00:18:26;;;;;;;11.15;1.65;;;6.70;99.90;;;;;;5001842;28;20386;-35
2023/12/22 00:20:52;;;;;;;12.38;1.55;;;6.70;99.90;;;;;;5003838;28;20050;-37
2023/12/22 00:23:18;;;;;;;12.77;2.00;;;6.70;99.90;;;;;;4985142;28;20408;-36
2023/12/22 00:25:43;;;;;;;10.00;2.05;;;6.60;99.90;;;;;;5003682;28;20089;-35
2023/12/22 00:28:09;;;;;;;11.18;1.10;;;6.60;99.90;;;;;;5004445;28;20447;-35
2023/12/22 00:30:35;;;;;;;12.50;2.03;;;6.60;99.90;;;;;;5005125;28;20111;-35
2023/12/22 00:33:00;;;;;;;9.63;1.50;;;6.60;99.90;;;;;;4998349;28;20054;-35
2023/12/22 00:35:26;;;;;;;8.20;1.77;;;6.60;99.90;;;;;;4985221;28;20132;-35
2023/12/22 00:37:52;;;;;;;14.20;1.80;;;6.60;99.90;;;;;;5000715;28;20047;-35
2023/12/22 00:40:18;;;;;;;13.90;1.73;;;6.60;99.90;;;;;;4998943;28;20058;-36
2023/12/22 00:42:44;;;;;;;14.05;1.50;;;6.60;99.90;;;;;;5003680;28;20046;-35
2023/12/22 00:45:10;;;;;;;18.40;2.47;;;6.60;99.90;;;;;;5001802;28;20133;-36
2023/12/22 00:47:36;;;;;;;12.10;1.65;;;6.70;99.90;;;;;;5003809;28;20046;-37
2023/12/22 00:50:02;;;;;;;12.38;1.50;;;6.70;99.90;;;;;;5002877;28;20515;-35
2023/12/22 00:52:28;;;;;;;12.55;1.77;;;6.70;99.90;;;;;;5002998;28;20588;-37
2023/12/22 00:54:54;;;;;;;11.88;2.00;;;6.70;99.90;;;;;;5006846;28;20056;-36
2023/12/22 00:57:19;;;;;;;11.68;2.03;;;6.70;99.90;;;;;;5002353;28;20045;-36
2023/12/22 00:59:47;;;;;;;10.90;1.58;;;6.60;99.90;;;;;;5004761;28;20507;-35
2023/12/22 01:02:16;;;;;;;6.57;0.98;;;6.60;99.90;;;;;;5002445;28;20481;-35
2023/12/22 01:04:42;;;;;;;10.52;1.95;;;6.70;99.90;;;;;;4983660;28;20046;-35
2023/12/22 01:07:08;;;;;;;7.60;2.03;;;6.70;99.90;;;;;;5001030;28;20134;-35
2023/12/22 01:09:34;;;;;;;12.85;1.83;;;6.70;99.90;;;;;;5003939;28;20049;-35
2023/12/22 01:12:03;;;;;;;10.20;1.92;;;6.70;99.90;;;;;;5005187;28;20863;-36
2023/12/22 01:14:29;;;;;;;14.68;2.45;;;6.60;99.90;;;;;;5001193;28;20054;-35
2023/12/22 01:16:55;;;;;;;17.60;2.47;;;6.60;99.90;;;;;;5004058;28;20072;-46
2023/12/22 01:19:21;;;;;;;12.85;2.50;;;6.60;99.90;;;;;;5000262;28;20124;-35
2023/12/22 01:21:46;;;;;;;11.57;1.48;;;6.70;99.90;;;;;;5004756;28;20042;-36
2023/12/22 01:24:12;;;;;;;11.20;1.83;;;6.70;99.90;;;;;;5005339;28;20057;-35
2023/12/22 01:26:38;;;;;;;8.00;1.23;;;6.70;99.90;;;;;;5002612;28;20054;-34
2023/12/22 01:29:03;;;;;;;10.93;1.27;;;6.80;99.90;;;;;;4984928;28;20065;-35
2023/12/22 01:31:29;;;;;;;12.85;1.70;;;6.80;99.90;;;;;;5002617;28;20077;-36
2023/12/22 01:33:55;;;;;;;10.45;1.58;;;6.70;99.90;;;;;;5002421;28;20099;-37
2023/12/22 01:36:20;;;;;;;20.83;2.35;;;6.70;99.90;;;;;;4981316;28;20053;-35
2023/12/22 01:38:46;;;;;;;12.30;1.75;;;6.60;99.90;;;;;;5002843;28;20046;-34
2023/12/22 01:41:12;;;;;;;11.70;1.55;;;6.70;99.90;;;;;;5003054;28;20050;-34
2023/12/22 01:43:37;;;;;;;12.25;1.90;;;6.60;99.90;;;;;;4998068;28;20225;-35
2023/12/22 01:46:04;;;;;;;12.73;1.73;;;6.60;99.90;;;;;;5000640;28;20892;-35
2023/12/22 01:48:30;;;;;;;9.05;1.73;;;6.60;99.90;;;;;;5001563;28;20053;-35
2023/12/22 01:50:58;;;;;;;13.13;2.08;;;6.60;99.90;;;;;;5003225;28;20050;-36
2023/12/22 01:53:25;;;;;;;10.40;1.67;;;6.50;99.90;;;;;;5005088;28;20421;-36
2023/12/22 01:55:54;;;;;;;16.17;2.00;;;6.40;99.90;;;;;;5003229;28;20049;-36
2023/12/22 01:58:20;;;;;;;13.77;1.70;;;6.40;99.90;;;;;;5002611;28;20123;-35
2023/12/22 02:00:46;;;;;;;14.40;2.05;;;6.40;99.90;;;;;;5001572;28;20497;-35
2023/12/22 02:03:13;;;;;;;13.00;2.08;;;6.40;99.90;;;;;;5002605;28;20097;-35
2023/12/22 02:05:41;;;;;;;10.73;1.40;;;6.40;99.90;;;;;;5002328;28;20058;-35
2023/12/22 02:08:07;;;;;;;10.77;1.02;;;6.30;99.90;;;;;;4998745;28;20529;-36
2023/12/22 02:10:32;;;;;;;12.10;1.33;;;6.30;99.90;;;;;;5003436;28;20046;-35
2023/12/22 02:12:58;;;;;;;6.65;0.85;;;6.20;99.90;;;;;;5001736;28;20449;-36
2023/12/22 02:15:24;;;;;;;6.63;0.90;;;6.20;99.90;;;;;;5001084;28;20078;-34
2023/12/22 02:18:09;;;;;;;6.38;1.10;;;6.10;99.90;;;;;;5001607;28;20057;-35
2023/12/22 02:20:35;;;;;;;10.20;1.20;;;6.10;99.90;;;;;;5001382;28;20050;-35
2023/12/22 02:23:00;;;;;;;6.35;0.90;;;6.10;99.90;;;;;;5004850;28;20061;-35
2023/12/22 02:25:26;;;;;;;7.05;0.73;;;6.20;99.90;;;;;;4985652;28;20421;-35
2023/12/22 02:28:02;;;;;;;6.93;1.20;;;6.20;99.90;;;;;;5002479;28;20050;-35
2023/12/22 02:31:00;;;;;;;4.10;0.30;;;5.90;99.90;;;;;;5004351;28;20400;-35
2023/12/22 02:33:28;;;;;;;3.85;0.40;;;5.60;99.90;;;;;;4989865;28;20107;-35
2023/12/22 02:35:58;;;;;;;4.00;0.40;;;5.40;99.90;;;;;;5000426;28;20053;-33
2023/12/22 02:38:25;;;;;;;5.30;0.50;;;5.30;99.90;;;;;;4998423;28;20057;-34
2023/12/22 02:40:51;;;;;;;3.67;0.50;;;5.20;99.90;;;;;;5004483;28;20080;-35
2023/12/22 02:43:16;;;;;;;6.43;0.60;;;5.10;99.90;;;;;;5001286;28;20046;-35
2023/12/22 02:45:42;;;;;;;2.83;0.35;;;5.00;99.90;;;;;;5003134;28;20072;-35
2023/12/22 02:48:08;;;;;;;4.45;0.52;;;4.90;99.90;;;;;;5000561;28;20400;-33
2023/12/22 02:50:33;;;;;;;5.28;0.60;;;4.90;99.90;;;;;;5003840;28;20057;-36
2023/12/22 02:52:59;;;;;;;4.93;0.60;;;4.90;99.90;;;;;;5002418;28;20595;-34
2023/12/22 02:55:25;;;;;;;6.95;0.40;;;4.90;99.90;;;;;;4999477;28;20078;-35
2023/12/22 02:57:50;;;;;;;5.32;0.57;;;4.90;99.90;;;;;;5003296;28;20060;-35
2023/12/22 03:00:16;;;;;;;9.20;1.13;;;4.90;99.90;;;;;;5000788;28;20162;-35
2023/12/22 03:02:42;;;;;;;7.60;0.98;;;5.00;99.90;;;;;;5005713;28;20050;-34
2023/12/22 03:05:07;;;;;;;4.57;0.80;;;5.00;99.90;;;;;;4994283;28;20042;-35
2023/12/22 03:07:33;;;;;;;7.18;0.85;;;5.00;99.90;;;;;;5005706;28;20045;-35
2023/12/22 03:09:59;;;;;;;10.18;1.70;;;5.10;99.90;;;;;;5002447;28;20053;-35
2023/12/22 03:12:24;;;;;;;9.50;1.42;;;5.10;99.90;;;;;;4999402;28;20062;-34
2023/12/22 03:14:50;;;;;;;8.73;0.95;;;5.00;99.90;;;;;;5004712;28;20046;-35
2023/12/22 03:17:15;;;;;;;4.97;0.70;;;5.00;99.90;;;;;;5001268;28;20081;-34
2023/12/22 03:19:41;;;;;;;8.23;1.13;;;4.90;99.90;;;;;;5001100;28;20137;-34
2023/12/22 03:22:07;;;;;;;5.15;0.52;;;4.80;99.90;;;;;;5000748;28;20107;-34
2023/12/22 03:24:33;;;;;;;7.97;0.65;;;4.70;99.90;;;;;;5004097;28;20556;-34
2023/12/22 03:26:59;;;;;;;5.18;0.70;;;4.60;99.90;;;;;;5006054;28;20132;-34
2023/12/22 03:29:24;;;;;;;5.72;0.32;;;4.50;99.90;;;;;;4987059;28;20052;-34
2023/12/22 03:31:50;;;;;;;5.53;0.80;;;4.50;99.90;;;;;;5001165;28;20093;-34
2023/12/22 03:34:16;;;;;;;3.28;0.43;;;4.60;99.90;;;;;;4999483;28;20132;-34
2023/12/22 03:36:41;;;;;;;7.53;0.60;;;4.60;99.90;;;;;;5007016;28;20046;-36
2023/12/22 03:39:07;;;;;;;3.15;0.32;;;4.70;99.90;;;;;;5001482;28;20054;-35
2023/12/22 03:41:34;;;;;;;8.43;1.10;;;4.70;99.90;;;;;;5002472;28;20517;-35
2023/12/22 03:43:59;;;;;;;9.00;0.85;;;4.80;99.90;;;;;;5001849;28;20104;-35
2023/12/22 03:46:25;;;;;;;5.30;0.68;;;4.90;99.90;;;;;;5003891;28;20053;-36
2023/12/22 03:48:51;;;;;;;9.82;1.20;;;5.00;99.90;;;;;;5001767;28;20050;-36
2023/12/22 03:51:16;;;;;;;8.20;1.85;;;5.00;99.90;;;;;;5007752;28;20519;-35
2023/12/22 03:53:42;;;;;;;10.43;1.20;;;5.10;99.90;;;;;;5004525;28;20046;-35
2023/12/22 03:56:08;;;;;;;10.82;1.00;;;5.20;99.90;;;;;;5002581;28;20401;-34
2023/12/22 03:58:38;;;;;;;8.25;0.90;;;5.30;99.90;;;;;;5007060;28;20299;-36
2023/12/22 04:01:04;;;;;;;11.15;1.40;;;5.30;99.90;;;;;;4990795;28;20053;-35
2023/12/22 04:03:29;;;;;;;8.20;1.20;;;5.40;99.90;;;;;;5004502;28;20572;-35
2023/12/22 04:05:55;;;;;;;6.72;1.15;;;5.50;99.90;;;;;;5006644;28;20125;-36
2023/12/22 04:08:21;;;;;;;12.85;1.58;;;5.50;99.90;;;;;;5002872;28;20050;-35
2023/12/22 04:10:49;;;;;;;9.82;1.27;;;5.60;99.90;;;;;;5004095;28;20133;-35
2023/12/22 04:13:15;;;;;;;10.77;1.95;;;5.70;99.90;;;;;;5006600;28;20057;-37
2023/12/22 04:15:40;;;;;;;9.88;1.60;;;5.80;99.90;;;;;;5004495;28;20139;-36
2023/12/22 04:18:06;;;;;;;12.45;1.63;;;5.90;99.90;;;;;;5004087;28;20097;-35
2023/12/22 04:20:32;;;;;;;11.82;1.17;;;6.10;99.90;;;;;;5006096;28;20511;-35
2023/12/22 04:22:58;;;;;;;10.27;1.40;;;6.10;99.90;;;;;;5004815;28;20153;-36
2023/12/22 04:25:25;;;;;;;12.02;1.80;;;6.20;99.90;;;;;;5004595;28;20073;-35
2023/12/22 04:27:51;;;;;;;10.52;1.42;;;6.20;99.90;;;;;;5002730;28;20052;-35
2023/12/22 04:30:16;;;;;;;8.32;1.50;;;6.30;99.90;;;;;;5005376;28;20046;-35
2023/12/22 04:32:42;;;;;;;11.25;1.88;;;6.30;99.90;;;;;;5004138;28;20413;-35
2023/12/22 04:35:08;;;;;;;12.65;1.58;;;6.30;99.90;;;;;;4990001;28;20060;-36
2023/12/22 04:37:34;;;;;;;6.30;1.10;;;6.30;99.90;;;;;;5003133;28;20089;-36
2023/12/22 04:39:59;;;;;;;15.15;2.03;;;6.30;99.90;;;;;;5003282;28;20058;-35
2023/12/22 04:42:25;;;;;;;10.27;1.50;;;6.30;99.90;;;;;;4999052;28;20045;-35
2023/12/22 04:44:52;;;;;;;8.13;1.50;;;6.30;99.90;;;;;;5005935;28;20042;-35
2023/12/22 04:47:17;;;;;;;8.52;1.10;;;6.30;99.90;;;;;;4996661;28;20042;-35
2023/12/22 04:49:44;;;;;;;7.72;1.02;;;6.30;99.90;;;;;;5007217;28;20520;-36
2023/12/22 04:52:10;;;;;;;8.35;1.75;;;6.30;99.90;;;;;;5009263;28;20100;-35
2023/12/22 04:54:36;;;;;;;12.75;1.75;;;6.30;99.90;;;;;;5007005;28;20489;-35
2023/12/22 04:57:02;;;;;;;10.55;1.58;;;6.30;99.90;;;;;;5004870;28;20045;-35
2023/12/22 04:59:28;;;;;;;10.73;1.20;;;6.30;99.90;;;;;;5000682;28;20132;-35
2023/12/22 05:01:53;;;;;;;13.20;1.60;;;6.30;99.90;;;;;;5002323;28;20493;-35
2023/12/22 05:04:19;;;;;;;10.77;2.03;;;6.30;99.90;;;;;;5002346;28;20121;-35
2023/12/22 05:06:45;;;;;;;9.82;1.60;;;6.30;99.90;;;;;;4998307;28;20081;-35
2023/12/22 05:09:12;;;;;;;11.80;2.13;;;6.30;99.90;;;;;;5004244;28;20481;-35
2023/12/22 05:11:37;;;;;;;9.32;1.15;;;6.40;99.90;;;;;;4986823;28;20134;-35
2023/12/22 05:14:03;;;;;;;14.82;2.42;;;6.40;99.90;;;;;;5005648;28;20628;-35
2023/12/22 05:16:31;;;;;;;7.95;1.60;;;6.50;99.90;;;;;;4999516;28;20437;-35
2023/12/22 05:18:57;;;;;;;11.90;1.52;;;6.60;99.90;;;;;;5001264;28;20081;-35
2023/12/22 05:21:24;;;;;;;20.92;2.28;;;6.60;99.90;;;;;;5000657;28;20454;-35
2023/12/22 05:23:50;;;;;;;12.93;1.75;;;6.50;99.90;;;;;;5000301;28;20105;-36
2023/12/22 05:26:22;;;;;;;8.32;1.45;;;6.60;99.90;;;;;;5000813;28;20076;-36
2023/12/22 05:28:51;;;;;;;10.70;1.77;;;6.60;99.90;;;;;;5000853;28;20046;-37
2023/12/22 05:31:17;;;;;;;9.75;1.20;;;6.70;99.90;;;;;;4999769;28;20070;-35
2023/12/22 05:33:43;;;;;;;16.80;1.92;;;6.70;99.90;;;;;;5001517;28;20458;-35
2023/12/22 05:36:08;;;;;;;10.27;2.15;;;6.70;99.90;;;;;;5004157;28;20456;-36
2023/12/22 05:38:38;;;;;;;11.48;1.58;;;6.70;99.90;;;;;;4979940;28;20120;-37
2023/12/22 05:41:05;;;;;;;13.27;1.67;;;6.70;99.90;;;;;;4999202;28;20045;-35
2023/12/22 05:43:30;;;;;;;14.23;2.35;;;6.70;99.90;;;;;;5001898;28;20489;-34
2023/12/22 05:45:57;;;;;;;10.55;1.42;;;6.70;99.90;;;;;;4986111;28;20058;-35
2023/12/22 05:48:22;;;;;;;15.45;1.92;;;6.80;99.90;;;;;;5002316;28;20418;-35
2023/12/22 05:50:48;;;;;;;19.30;2.25;;;6.80;99.90;;;;;;4998628;28;20077;-35
2023/12/22 05:53:15;;;;;;;13.30;1.95;;;6.70;99.90;;;;;;4997570;28;20065;-35
2023/12/22 05:55:40;;;;;;;19.48;2.33;;;6.70;99.90;;;;;;4998468;28;20489;-35
2023/12/22 05:58:06;;;;;;;16.65;2.13;;;6.80;99.90;;;;;;5002585;28;20057;-35
2023/12/22 06:00:31;;;;;;;16.73;2.30;;;6.70;99.90;;;;;;4996398;28;20499;-34
2023/12/22 06:02:57;;;;;;;11.65;2.42;;;6.80;99.90;;;;;;5003347;28;20050;-35
2023/12/22 06:05:23;;;;;;;10.35;1.77;;;6.80;99.90;;;;;;5003368;28;20050;-35
2023/12/22 06:07:49;;;;;;;19.23;1.90;;;6.70;99.90;;;;;;4999449;28;20061;-39
2023/12/22 06:10:14;;;;;;;15.60;1.95;;;6.80;99.90;;;;;;4997074;28;20058;-35
2023/12/22 06:12:40;;;;;;;14.63;1.92;;;6.80;99.90;;;;;;5000547;28;20056;-35
2023/12/22 06:15:06;;;;;;;17.85;2.50;;;6.80;99.90;;;;;;4998821;28;20042;-35
2023/12/22 06:17:32;;;;;;;14.13;2.08;;;6.80;99.90;;;;;;5001550;28;20054;-34
2023/12/22 06:19:57;;;;;;;13.88;2.13;;;6.80;99.90;;;;;;5002302;28;20115;-36
2023/12/22 06:22:23;;;;;;;17.17;2.78;;;6.90;99.90;;;;;;5000968;28;20409;-35
2023/12/22 06:24:49;;;;;;;11.82;1.90;;;6.90;99.90;;;;;;5000604;28;20057;-36
2023/12/22 06:27:14;;;;;;;13.80;2.28;;;6.90;99.90;;;;;;5000111;28;20077;-34
2023/12/22 06:29:41;;;;;;;12.90;1.83;;;6.90;99.90;;;;;;5001620;28;20053;-35
2023/12/22 06:32:07;;;;;;;12.73;1.80;;;6.90;99.90;;;;;;4998359;28;20046;-36
2023/12/22 06:34:33;;;;;;;12.70;2.03;;;6.90;99.90;;;;;;4999624;28;20046;-34
2023/12/22 06:36:58;;;;;;;10.13;2.13;;;6.90;99.90;;;;;;5000429;28;20057;-35
2023/12/22 06:39:24;;;;;;;10.38;1.40;;;6.80;99.90;;;;;;4986776;28;20050;-35
2023/12/22 06:41:51;;;;;;;10.88;1.98;;;6.80;99.90;;;;;;5001063;28;20062;-36
2023/12/22 06:44:16;;;;;;;12.35;1.90;;;6.80;99.90;;;;;;5001091;28;20055;-36
2023/12/22 06:46:42;;;;;;;13.00;1.48;;;6.80;99.90;;;;;;5003627;28;20060;-34
2023/12/22 06:49:08;;;;;;;14.38;2.45;;;6.70;99.90;;;;;;4982528;28;20062;-36
2023/12/22 06:51:36;;;;;;;13.65;2.03;;;6.70;99.90;;;;;;5000427;28;20139;-35
2023/12/22 06:54:04;;;;;;;14.15;2.40;;;6.70;99.90;;;;;;5003131;28;20065;-35
2023/12/22 06:56:31;;;;;;;15.23;1.95;;;6.70;99.90;;;;;;5002870;28;20061;-35
2023/12/22 06:58:57;;;;;;;11.60;1.92;;;6.70;99.90;;;;;;5001929;28;20108;-35
2023/12/22 07:01:31;;;;;;;14.45;1.80;;;6.70;99.90;;;;;;4996817;28;20045;-35
2023/12/22 07:03:57;;;;;;;12.68;1.92;;;6.70;99.90;;;;;;4999923;28;20049;-35
2023/12/22 07:06:24;;;;;;;14.35;1.40;;;6.70;99.90;;;;;;4999385;28;20519;-35
2023/12/22 07:09:11;;;;;;;17.50;2.97;;;6.70;99.90;;;;;;4999059;28;20062;-34
2023/12/22 07:11:44;;;;;;;12.20;1.77;;;6.70;99.90;;;;;;5000361;28;20058;-35
2023/12/22 07:14:10;;;;;;;7.15;1.63;;;6.60;99.90;;;;;;5003855;28;20078;-35
2023/12/22 07:16:36;;;;;;;9.30;1.63;;;6.60;99.90;;;;;;4998366;28;20085;-35
2023/12/22 07:19:03;;;;;;;10.32;1.35;;;6.60;99.90;;;;;;4983421;28;20077;-35
2023/12/22 07:21:28;;;;;;;13.77;1.63;;;6.50;99.90;;;;;;5004198;28;20050;-35
2023/12/22 07:23:54;;;;;;;13.02;1.65;;;6.50;99.90;;;;;;5005858;28;30784;-35
2023/12/22 07:26:21;;;;;;;12.70;2.22;;;6.50;99.90;;;;;;5002314;28;20057;-35
2023/12/22 07:28:48;;;;;;;14.25;2.38;;;6.50;99.90;;;;;;5004346;28;20493;-38
2023/12/22 07:31:14;;;;;;;9.55;1.30;;;6.40;99.90;;;;;;5008503;28;20041;-34
2023/12/22 07:33:40;;;;;;;12.52;1.92;;;6.40;99.90;;;;;;5001863;28;20061;-35
2023/12/22 07:36:06;;;;;;;13.30;1.58;;;6.40;99.90;;;;;;5005764;28;20049;-35
2023/12/22 07:38:32;;;;;;;11.50;1.42;;;6.30;99.90;;;;;;5002237;28;20053;-35
2023/12/22 07:40:58;;;;;;;12.73;1.95;;;6.30;99.90;;;;;;5007192;28;20428;-35
2023/12/22 07:43:24;;;;;;;11.68;1.65;;;6.20;99.90;;;;;;5002244;28;20054;-37
2023/12/22 07:45:51;;;;;;;15.30;1.95;;;6.20;99.90;;;;;;5006248;28;20065;-34
2023/12/22 07:48:17;;;;;;;12.95;2.55;;;6.20;99.90;;;;;;5003492;28;20054;-40
2023/12/22 07:50:43;;;;;;;13.05;2.15;;;6.20;99.90;;;;;;5004299;28;20049;-34
2023/12/22 07:53:09;;;;;;;11.57;1.58;;;6.20;99.90;;;;;;4988103;28;20057;-34
2023/12/22 07:55:35;;;;;;;15.15;2.42;;;6.20;99.90;;;;;;5008964;28;20057;-35
2023/12/22 07:58:00;;;;;;;9.80;1.52;;;6.20;99.90;;;;;;5003298;28;20057;-35
2023/12/22 08:00:26;;;;;;;12.43;1.80;;;6.20;99.90;;;;;;4986109;28;20050;-35
2023/12/22 08:02:52;;;;;;;14.40;1.50;;;6.30;99.90;;;;;;5008022;28;20420;-35
2023/12/22 08:05:18;;;;;;;10.20;1.40;;;6.30;99.90;;;;;;5001390;28;21432;-36
2023/12/22 08:07:44;;;;;;;17.52;2.80;;;6.30;99.90;;;;;;5006580;28;20200;-35
2023/12/22 08:10:10;;;;;;;10.00;1.10;;;6.30;99.90;;;;;;5003773;28;20589;-35
2023/12/22 08:12:36;;;;;;;8.82;1.27;;;6.30;99.90;;;;;;5004078;28;20073;-36
2023/12/22 08:15:02;;;;;;;12.88;1.48;;;6.30;99.90;;;;;;5003394;28;20201;-36
2023/12/22 08:17:28;;;;;;;6.65;1.13;;;6.30;99.90;;;;;;4986823;28;20134;-37
2023/12/22 08:19:54;;;;;;;14.10;1.60;;;6.30;99.90;;;;;;5004875;28;20479;-35
2023/12/22 08:22:19;;;;;;;9.95;1.38;;;6.30;99.90;;;;;;5006481;28;20050;-35
2023/12/22 08:24:45;;;;;;;7.32;1.00;;;6.30;99.90;;;;;;5000533;28;20080;-34
2023/12/22 08:27:11;;;;;;;9.43;1.40;;;6.30;99.90;;;;;;4998284;28;20418;-35
2023/12/22 08:29:37;;;;;;;10.82;1.40;;;6.30;99.90;;;;;;5007237;28;20038;-34
2023/12/22 08:32:03;;;;;;;8.63;1.80;;;6.30;99.90;;;;;;4989197;28;20405;-34
2023/12/22 08:34:28;;;;;;;11.18;1.30;;;6.20;99.90;;;;;;4999400;28;20072;-34
2023/12/22 08:36:54;;;;;;;8.68;1.70;;;6.20;99.90;;;;;;5001957;28;20104;-37
2023/12/22 08:39:20;;;;;;;7.78;1.25;;;6.20;99.90;;;;;;5000349;28;20053;-34
2023/12/22 08:41:46;;;;;;;11.85;1.58;;;6.20;99.90;;;;;;5003785;28;20049;-34
2023/12/22 08:44:14;;;;;;;8.18;0.90;;;6.20;99.90;;;;;;4989428;28;20449;-34
2023/12/22 08:46:40;;;;;;;6.18;0.90;;;6.10;99.90;;;;;;5003256;28;20137;-35
2023/12/22 08:49:06;;;;;;;12.55;1.75;;;6.10;99.90;;;;;;5000587;28;20136;-36
2023/12/22 08:51:31;;;;;;;7.03;1.02;;;6.10;99.90;;;;;;5002735;28;20081;-36
2023/12/22 08:53:58;;;;;;;7.45;1.23;;;6.10;99.90;;;;;;5003214;28;20165;-34
2023/12/22 08:56:24;;;;;;;11.57;1.10;;;6.10;99.90;;;;;;5002951;28;20050;-34
2023/12/22 08:58:52;;;;;;;9.73;1.60;;;6.10;99.90;;;;;;5003300;28;20519;-34
2023/12/22 09:01:18;;;;;;;9.93;1.65;;;6.00;99.90;;;;;;5005451;28;20107;-34
2023/12/22 09:03:45;;;;;;;9.50;1.13;;;6.00;99.90;;;;;;5007054;28;20493;-34
2023/12/22 09:06:18;;;;;;;10.00;1.30;;;6.00;99.90;;;;;;5002381;28;20058;-34
2023/12/22 09:08:45;;;;;;;9.07;1.75;;;6.00;99.90;;;;;;5003806;28;20045;-35
2023/12/22 09:11:16;;;;;;;11.30;1.52;;;6.00;99.90;;;;;;5003609;28;20050;-35
2023/12/22 09:13:42;;;;;;;6.38;1.10;;;6.00;99.90;;;;;;5007436;28;20057;-35
2023/12/22 09:16:09;;;;;;;12.93;1.50;;;5.90;99.90;;;;;;5002374;28;20057;-35
2023/12/22 09:18:35;;;;;;;11.85;1.48;;;5.90;99.90;;;;;;5006431;28;20072;-34
2023/12/22 09:21:02;;;;;;;11.25;1.13;;;5.90;99.90;;;;;;5005266;28;20053;-34
2023/12/22 09:23:28;;;;;;;12.20;1.20;;;5.90;99.90;;;;;;5003338;28;20576;-34
2023/12/22 09:25:54;;;;;;;9.45;1.55;;;5.90;99.90;;;;;;5000102;28;20077;-34
2023/12/22 09:28:20;;;;;;;9.68;1.67;;;5.90;99.90;;;;;;4970427;28;20493;-35
2023/12/22 09:30:46;;;;;;;11.10;1.35;;;5.80;99.90;;;;;;5004473;28;20495;-35
2023/12/22 09:33:12;;;;;;;9.88;1.45;;;5.80;99.90;;;;;;4993386;28;20073;-34
2023/12/22 09:35:41;;;;;;;9.73;1.48;;;5.80;99.90;;;;;;5004090;28;20046;-34
2023/12/22 09:38:09;;;;;;;10.57;2.05;;;5.80;99.90;;;;;;5002980;28;20045;-34
2023/12/22 09:40:36;;;;;;;9.57;1.00;;;5.80;99.90;;;;;;5003330;28;21301;-34
2023/12/22 09:43:03;;;;;;;7.25;0.88;;;5.80;99.90;;;;;;5002421;28;20096;-34
2023/12/22 09:45:30;;;;;;;8.77;0.73;;;5.80;99.90;;;;;;5003501;28;20067;-35
2023/12/22 09:47:58;;;;;;;4.38;0.30;;;5.80;99.90;;;;;;5002789;28;20046;-35
2023/12/22 09:50:25;;;;;;;3.35;0.35;;;5.90;99.90;;;;;;5005822;28;20046;-35
2023/12/22 09:52:51;;;;;;;3.80;0.45;;;5.90;99.90;;;;;;4996591;28;20149;-35
2023/12/22 09:55:17;;;;;;;4.63;0.50;;;6.00;99.90;;;;;;4997312;28;20057;-35
2023/12/22 09:57:44;;;;;;;4.63;0.70;;;6.10;99.90;;;;;;4985908;28;20115;-35
2023/12/22 10:00:12;;;;;;;1.65;0.20;;;6.10;99.90;;;;;;5001360;28;20046;-35
2023/12/22 10:02:39;;;;;;;1.63;0.30;;;6.10;99.90;;;;;;5001244;28;20107;-39
2023/12/22 10:05:05;;;;;;;3.63;0.50;;;6.10;99.90;;;;;;5004652;28;20042;-35
2023/12/22 10:07:33;;;;;;;4.03;0.32;;;6.10;99.90;;;;;;4999892;28;20049;-35
2023/12/22 10:10:00;;;;;;;3.15;0.40;;;6.10;99.90;;;;;;5001837;28;20046;-35
2023/12/22 10:12:30;;;;;;;2.58;0.30;;;6.10;99.90;;;;;;4985131;28;20480;-35
2023/12/22 10:14:58;;;;;;;4.03;0.30;;;6.00;99.90;;;;;;4997908;28;20137;-34
2023/12/22 10:17:25;;;;;;;2.20;0.40;;;6.00;99.90;;;;;;5005153;28;20448;-35
2023/12/22 10:19:50;;;;;;;1.45;0.20;;;6.00;99.90;;;;;;5001940;28;20058;-34
2023/12/22 10:22:17;;;;;;;1.35;0.15;;;6.00;99.90;;;;;;5001069;28;20116;-34
2023/12/22 10:24:50;;;;;;;3.30;0.30;;;6.00;99.90;;;;;;5000639;28;20046;-34
2023/12/22 10:27:23;;;;;;;2.45;0.28;;;6.00;99.90;;;;;;4999121;28;20114;-34
2023/12/22 10:29:50;;;;;;;2.65;0.70;;;6.00;99.90;;;;;;5000014;28;20057;-34
2023/12/22 10:32:16;;;;;;;1.58;0.20;;;6.00;99.90;;;;;;5000883;28;20064;-34
2023/12/22 10:34:43;;;;;;;3.65;0.22;;;6.00;99.90;;;;;;5003788;28;20512;-34
2023/12/22 10:37:10;;;;;;;1.20;0.45;;;6.10;99.90;;;;;;5003934;28;20176;-34
2023/12/22 10:39:37;;;;;;;1.85;0.20;;;6.10;99.90;;;;;;5005077;28;20517;-34
2023/12/22 10:42:03;;;;;;;1.75;0.30;;;6.10;99.90;;;;;;4985396;28;20141;-35
2023/12/22 10:44:29;;;;;;;2.10;0.20;;;6.10;99.90;;;;;;5005027;28;20061;-35
2023/12/22 10:46:56;;;;;;;1.25;0.20;;;6.20;99.90;;;;;;5003207;28;20042;-35
2023/12/22 10:49:23;;;;;;;1.38;0.20;;;6.20;99.90;;;;;;5001152;28;20448;-35
2023/12/22 10:51:49;;;;;;;4.15;0.10;;;6.20;99.90;;;;;;5006424;28;20050;-35
2023/12/22 10:54:16;;;;;;;1.70;0.20;;;6.20;99.90;;;;;;5003522;28;20057;-35
2023/12/22 10:56:41;;;;;;;2.88;0.30;;;6.20;99.90;;;;;;5001258;28;20045;-35
2023/12/22 10:59:09;;;;;;;2.75;0.38;;;6.20;99.90;;;;;;4985009;28;20065;-35
2023/12/22 11:01:39;;;;;;;1.92;0.22;;;6.20;99.90;;;;;;5004471;28;20053;-36
2023/12/22 11:04:13;;;;;;;2.25;0.20;;;6.20;99.90;;;;;;5003389;28;20180;-36
2023/12/22 11:06:42;;;;;;;3.97;0.10;;;6.20;99.90;;;;;;5002407;28;20061;-36
2023/12/22 11:09:09;;;;;;;2.33;0.30;;;6.30;99.90;;;;;;5000321;28;20046;-36
2023/12/22 11:11:39;;;;;;;2.75;0.75;;;6.30;99.90;;;;;;5000438;28;20050;-35
2023/12/22 11:14:06;;;;;;;1.83;0.20;;;6.30;99.90;;;;;;4998758;28;20100;-36
2023/12/22 11:16:34;;;;;;;0.95;0.20;;;6.30;99.90;;;;;;5000550;28;20049;-37
2023/12/22 11:19:02;;;;;;;1.80;0.30;;;6.30;99.90;;;;;;4982808;28;20051;-36
2023/12/22 11:21:29;;;;;;;3.35;0.20;;;6.30;99.90;;;;;;5001542;28;20069;-35
2023/12/22 11:23:55;;;;;;;3.60;0.20;;;6.30;99.90;;;;;;5000757;28;20054;-35
2023/12/22 11:26:22;;;;;;;2.40;0.20;;;6.30;99.90;;;;;;4999762;28;20481;-35
2023/12/22 11:28:52;;;;;;;2.28;0.28;;;6.30;99.90;;;;;;5000225;28;20064;-35
2023/12/22 11:31:19;;;;;;;2.58;0.20;;;6.30;99.90;;;;;;4998385;28;20081;-34
2023/12/22 11:33:49;;;;;;;3.05;0.20;;;6.30;99.90;;;;;;4999411;28;20496;-35
2023/12/22 11:36:15;;;;;;;1.33;0.20;;;6.40;99.90;;;;;;5003169;28;20060;-35
2023/12/22 11:38:42;;;;;;;3.17;0.10;;;6.40;99.90;;;;;;4997199;28;20057;-35
2023/12/22 11:41:12;;;;;;;1.60;0.10;;;6.40;99.90;;;;;;5001024;28;20058;-35
2023/12/22 11:43:42;;;;;;;2.55;0.30;;;6.50;99.90;;;;;;5001888;28;20062;-35
2023/12/22 11:46:08;;;;;;;3.05;0.30;;;6.50;99.90;;;;;;5001278;28;20049;-35
2023/12/22 11:48:35;;;;;;;2.60;0.35;;;6.50;99.90;;;;;;5004647;28;20057;-35
2023/12/22 11:51:00;;;;;;;3.95;0.20;;;6.50;99.90;;;;;;5000914;28;20120;-35
2023/12/22 11:53:32;;;;;;;2.60;0.30;;;6.60;99.90;;;;;;5001251;28;20456;-35
2023/12/22 11:56:07;;;;;;;1.25;0.17;;;6.60;99.90;;;;;;5004802;28;20050;-35
2023/12/22 11:58:51;;;;;;;1.33;0.10;;;6.60;99.90;;;;;;4981343;28;20050;-35
2023/12/22 12:01:18;;;;;;;1.02;0.20;;;6.60;99.90;;;;;;4998662;28;20050;-35
2023/12/22 12:03:55;;;;;;;2.40;0.20;;;6.60;99.90;;;;;;4998442;28;20489;-35
2023/12/22 12:06:26;;;;;;;1.10;0.20;;;6.60;99.90;;;;;;4995073;28;20073;-35
2023/12/22 12:08:56;;;;;;;3.15;0.20;;;6.70;99.90;;;;;;5001650;28;20104;-35
2023/12/22 12:11:23;;;;;;;3.17;0.30;;;6.70;99.90;;;;;;5002759;28;20573;-35
2023/12/22 12:13:50;;;;;;;1.92;0.15;;;6.70;99.90;;;;;;5001190;28;20133;-35
2023/12/22 12:16:23;;;;;;;2.45;0.20;;;6.70;99.90;;;;;;5003713;28;20061;-35
2023/12/22 12:18:50;;;;;;;3.55;0.32;;;6.60;99.90;;;;;;5003089;28;20085;-42
2023/12/22 12:21:16;;;;;;;5.70;0.40;;;6.60;99.90;;;;;;5002133;28;20147;-35
2023/12/22 12:23:42;;;;;;;4.53;0.40;;;6.60;99.90;;;;;;5008238;28;20088;-35
2023/12/22 12:26:08;;;;;;;1.92;0.30;;;6.60;99.90;;;;;;4997635;28;20081;-35
2023/12/22 12:28:36;;;;;;;2.95;0.10;;;6.70;99.90;;;;;;5002584;28;20417;-36
2023/12/22 12:31:08;;;;;;;3.10;0.22;;;6.60;99.90;;;;;;5001607;28;20497;-35
2023/12/22 12:33:37;;;;;;;;;;;6.60;99.90;;;;;;5001339;28;20054;-35
2023/12/22 12:36:06;;;;;;;4.35;0.47;;;6.70;99.90;;;;;;5001627;28;19962;-35
2023/12/22 12:38:44;;;;;;;3.25;0.40;;;6.70;99.90;;;;;;4998812;28;20075;-35
2023/12/22 12:41:13;;;;;;;1.90;0.30;;;6.70;99.90;;;;;;5002949;28;20058;-35
2023/12/22 12:43:45;;;;;;;2.63;0.38;;;6.70;99.90;;;;;;5003620;28;20140;-35
2023/12/22 12:46:11;;;;;;;7.80;0.38;;;6.80;99.90;;;;;;4985482;28;20053;-35
2023/12/22 12:48:37;;;;;;;2.80;0.30;;;6.70;99.90;;;;;;5003190;28;20065;-35
2023/12/22 12:51:06;;;;;;;3.15;0.30;;;6.80;99.90;;;;;;5002299;28;20048;-35